ALK192 VIDP-VCBI
Flight info
| Callsign | ALK192 |
|---|---|
| Flight time | 3h 10m |
| Altitude | 38000 |
| Route | AKRIB7D AKRIB Q23 IKAVA/N0443F390 Q23 RUPKU/N0444F380 Q23 MMV A465 SAGOR SAGOR1A |
| Aircraft | A20N/M-SDE2E3FGHIRWXY/LB1 |
Departure
| Time | 2026-04-26 05:24 |
|---|---|
| Airport | Indira Gandhi International Airport (VIDP) |
Arrival
| Time | 2026-04-26 08:35 |
|---|---|
| Airport | Bandaranaike International Colombo Airport (VCBI) |
| Time | Latitude | Longitude | Altitude | Speed | Heading |
|---|---|---|---|---|---|
| 2026-04-26 05:01 | 28.55387 | 77.07992 | 750 ft | 0 kts | 329° |
| 2026-04-26 05:11 | 28.55376 | 77.07999 | 746 ft | 2 kts | 326° |
| 2026-04-26 05:12 | 28.55362 | 77.08010 | 746 ft | 2 kts | 326° |
| 2026-04-26 05:12 | 28.55349 | 77.08021 | 750 ft | 2 kts | 323° |
| 2026-04-26 05:12 | 28.55336 | 77.08032 | 749 ft | 2 kts | 320° |
| 2026-04-26 05:12 | 28.55324 | 77.08045 | 746 ft | 2 kts | 315° |
| 2026-04-26 05:13 | 28.55312 | 77.08059 | 748 ft | 2 kts | 308° |
| 2026-04-26 05:13 | 28.55303 | 77.08074 | 748 ft | 2 kts | 299° |
| 2026-04-26 05:13 | 28.55296 | 77.08091 | 748 ft | 2 kts | 284° |
| 2026-04-26 05:13 | 28.55294 | 77.08109 | 748 ft | 2 kts | 264° |
| 2026-04-26 05:14 | 28.55297 | 77.08127 | 750 ft | 2 kts | 245° |
| 2026-04-26 05:14 | 28.55301 | 77.08135 | 748 ft | 0 kts | 240° |
| 2026-04-26 05:16 | 28.55299 | 77.08132 | 748 ft | 1 kts | 240° |
| 2026-04-26 05:16 | 28.55289 | 77.08113 | 750 ft | 4 kts | 240° |
| 2026-04-26 05:16 | 28.55270 | 77.08076 | 748 ft | 7 kts | 240° |
| 2026-04-26 05:16 | 28.55243 | 77.08022 | 750 ft | 9 kts | 240° |
| 2026-04-26 05:17 | 28.55209 | 77.07956 | 749 ft | 11 kts | 240° |
| 2026-04-26 05:17 | 28.55148 | 77.07899 | 749 ft | 12 kts | 199° |
| 2026-04-26 05:17 | 28.55060 | 77.07876 | 748 ft | 13 kts | 184° |
| 2026-04-26 05:17 | 28.55000 | 77.07938 | 749 ft | 13 kts | 103° |
| 2026-04-26 05:18 | 28.54975 | 77.08049 | 749 ft | 16 kts | 104° |
| 2026-04-26 05:18 | 28.54947 | 77.08180 | 751 ft | 18 kts | 103° |
| 2026-04-26 05:18 | 28.54916 | 77.08327 | 750 ft | 20 kts | 103° |
| 2026-04-26 05:18 | 28.54874 | 77.08485 | 751 ft | 22 kts | 104° |
| 2026-04-26 05:19 | 28.54835 | 77.08659 | 750 ft | 24 kts | 104° |
| 2026-04-26 05:19 | 28.54786 | 77.08844 | 751 ft | 25 kts | 109° |
| 2026-04-26 05:19 | 28.54747 | 77.09040 | 748 ft | 26 kts | 103° |
| 2026-04-26 05:19 | 28.54699 | 77.09244 | 750 ft | 27 kts | 110° |
| 2026-04-26 05:20 | 28.54649 | 77.09452 | 749 ft | 28 kts | 103° |
| 2026-04-26 05:20 | 28.54602 | 77.09673 | 750 ft | 29 kts | 103° |
| 2026-04-26 05:20 | 28.54547 | 77.09901 | 748 ft | 30 kts | 104° |
| 2026-04-26 05:20 | 28.54496 | 77.10134 | 750 ft | 31 kts | 104° |
| 2026-04-26 05:21 | 28.54445 | 77.10352 | 752 ft | 22 kts | 101° |
| 2026-04-26 05:21 | 28.54405 | 77.10519 | 750 ft | 22 kts | 111° |
| 2026-04-26 05:21 | 28.54363 | 77.10692 | 748 ft | 24 kts | 106° |
| 2026-04-26 05:21 | 28.54327 | 77.10846 | 751 ft | 6 kts | 105° |
| 2026-04-26 05:22 | 28.54311 | 77.10911 | 750 ft | 11 kts | 105° |
| 2026-04-26 05:22 | 28.54251 | 77.10960 | 748 ft | 13 kts | 191° |
| 2026-04-26 05:22 | 28.54151 | 77.10934 | 747 ft | 16 kts | 192° |
| 2026-04-26 05:22 | 28.54043 | 77.10905 | 750 ft | 17 kts | 193° |
| 2026-04-26 05:23 | 28.53924 | 77.10871 | 751 ft | 19 kts | 197° |
| 2026-04-26 05:23 | 28.53813 | 77.10801 | 747 ft | 18 kts | 249° |
| 2026-04-26 05:23 | 28.53836 | 77.10664 | 748 ft | 18 kts | 284° |
| 2026-04-26 05:23 | 28.53886 | 77.10424 | 747 ft | 59 kts | 284° |
| 2026-04-26 05:24 | 28.54035 | 77.09738 | 747 ft | 117 kts | 284° |
| 2026-04-26 05:24 | 28.54273 | 77.08663 | 756 ft | 161 kts | 285° |
| 2026-04-26 05:24 | 28.54555 | 77.07430 | 1344 ft | 158 kts | 284° |
| 2026-04-26 05:24 | 28.54814 | 77.06210 | 1868 ft | 166 kts | 287° |
| 2026-04-26 05:25 | 28.55113 | 77.04854 | 2155 ft | 187 kts | 287° |
| 2026-04-26 05:25 | 28.55231 | 77.03300 | 2496 ft | 210 kts | 265° |
| 2026-04-26 05:25 | 28.54640 | 77.01691 | 2771 ft | 237 kts | 234° |
| 2026-04-26 05:25 | 28.53477 | 77.00630 | 2948 ft | 263 kts | 207° |
| 2026-04-26 05:26 | 28.52874 | 77.00355 | 3042 ft | 272 kts | 199° |
| 2026-04-26 05:26 | 28.51608 | 77.00013 | 3274 ft | 287 kts | 190° |
| 2026-04-26 05:26 | 28.50086 | 76.99795 | 3834 ft | 289 kts | 187° |
| 2026-04-26 05:27 | 28.48079 | 76.99556 | 4674 ft | 289 kts | 188° |
| 2026-04-26 05:27 | 28.46099 | 76.99276 | 5494 ft | 290 kts | 190° |
| 2026-04-26 05:27 | 28.44099 | 76.98935 | 6323 ft | 291 kts | 192° |
| 2026-04-26 05:27 | 28.42135 | 76.98562 | 7080 ft | 292 kts | 193° |
| 2026-04-26 05:28 | 28.40082 | 76.98151 | 7829 ft | 295 kts | 194° |
| 2026-04-26 05:28 | 28.38053 | 76.97738 | 8606 ft | 297 kts | 194° |
| 2026-04-26 05:28 | 28.36004 | 76.97321 | 9385 ft | 299 kts | 194° |
| 2026-04-26 05:28 | 28.33974 | 76.96908 | 10123 ft | 301 kts | 194° |
| 2026-04-26 05:29 | 28.31895 | 76.96485 | 10821 ft | 305 kts | 194° |
| 2026-04-26 05:29 | 28.29788 | 76.96058 | 11541 ft | 308 kts | 194° |
| 2026-04-26 05:29 | 28.27669 | 76.95629 | 12280 ft | 310 kts | 194° |
| 2026-04-26 05:29 | 28.25530 | 76.95197 | 13007 ft | 314 kts | 194° |
| 2026-04-26 05:30 | 28.23361 | 76.94759 | 13718 ft | 317 kts | 195° |
| 2026-04-26 05:30 | 28.21210 | 76.94338 | 14060 ft | 333 kts | 194° |
| 2026-04-26 05:30 | 28.18793 | 76.93889 | 14247 ft | 354 kts | 193° |
| 2026-04-26 05:30 | 28.16296 | 76.93436 | 14484 ft | 370 kts | 193° |
| 2026-04-26 05:31 | 28.13764 | 76.92982 | 15067 ft | 374 kts | 193° |
| 2026-04-26 05:31 | 28.11186 | 76.92519 | 15715 ft | 376 kts | 193° |
| 2026-04-26 05:31 | 28.08591 | 76.92050 | 16316 ft | 379 kts | 193° |
| 2026-04-26 05:31 | 28.05970 | 76.91572 | 16932 ft | 382 kts | 193° |
| 2026-04-26 05:32 | 28.03333 | 76.91091 | 17522 ft | 385 kts | 193° |
| 2026-04-26 05:32 | 28.00675 | 76.90605 | 18104 ft | 389 kts | 193° |
| 2026-04-26 05:32 | 27.97989 | 76.90113 | 18593 ft | 392 kts | 193° |
| 2026-04-26 05:32 | 27.95314 | 76.89624 | 19068 ft | 396 kts | 193° |
| 2026-04-26 05:33 | 27.92571 | 76.89122 | 19542 ft | 400 kts | 193° |
| 2026-04-26 05:33 | 27.89814 | 76.88618 | 20016 ft | 403 kts | 193° |
| 2026-04-26 05:33 | 27.87027 | 76.88109 | 20488 ft | 407 kts | 193° |
| 2026-04-26 05:33 | 27.84246 | 76.87602 | 20937 ft | 411 kts | 193° |
| 2026-04-26 05:34 | 27.81404 | 76.87083 | 21404 ft | 415 kts | 193° |
| 2026-04-26 05:34 | 27.78536 | 76.86561 | 21849 ft | 418 kts | 192° |
| 2026-04-26 05:34 | 27.75649 | 76.86035 | 22291 ft | 422 kts | 192° |
| 2026-04-26 05:34 | 27.72721 | 76.85503 | 22749 ft | 426 kts | 192° |
| 2026-04-26 05:35 | 27.69816 | 76.84975 | 23188 ft | 429 kts | 192° |
| 2026-04-26 05:35 | 27.66851 | 76.84436 | 23583 ft | 433 kts | 192° |
| 2026-04-26 05:35 | 27.63864 | 76.83894 | 23986 ft | 435 kts | 192° |
| 2026-04-26 05:35 | 27.60867 | 76.83351 | 24381 ft | 437 kts | 192° |
| 2026-04-26 05:36 | 27.57851 | 76.82805 | 24764 ft | 440 kts | 192° |
| 2026-04-26 05:36 | 27.54813 | 76.82255 | 25151 ft | 442 kts | 192° |
| 2026-04-26 05:36 | 27.51756 | 76.81701 | 25528 ft | 445 kts | 192° |
| 2026-04-26 05:36 | 27.48718 | 76.81152 | 25902 ft | 447 kts | 192° |
| 2026-04-26 05:37 | 27.45623 | 76.80593 | 26276 ft | 450 kts | 192° |
| 2026-04-26 05:37 | 27.42513 | 76.80030 | 26636 ft | 452 kts | 192° |
| 2026-04-26 05:37 | 27.39475 | 76.79301 | 26973 ft | 453 kts | 196° |
| 2026-04-26 05:37 | 27.36389 | 76.78464 | 27341 ft | 455 kts | 197° |
| 2026-04-26 05:38 | 27.33299 | 76.77630 | 27707 ft | 457 kts | 197° |
| 2026-04-26 05:38 | 27.30185 | 76.76791 | 28049 ft | 460 kts | 196° |
| 2026-04-26 05:38 | 27.27063 | 76.75952 | 28397 ft | 462 kts | 196° |
| 2026-04-26 05:38 | 27.23920 | 76.75108 | 28728 ft | 465 kts | 196° |
| 2026-04-26 05:39 | 27.20809 | 76.74274 | 29052 ft | 467 kts | 196° |
| 2026-04-26 05:39 | 27.17643 | 76.73426 | 29369 ft | 469 kts | 196° |
| 2026-04-26 05:39 | 27.14444 | 76.72569 | 29689 ft | 471 kts | 196° |
| 2026-04-26 05:39 | 27.11275 | 76.71721 | 29974 ft | 473 kts | 196° |
| 2026-04-26 05:40 | 27.08046 | 76.70857 | 30268 ft | 475 kts | 196° |
| 2026-04-26 05:40 | 27.05907 | 76.70286 | 30471 ft | 476 kts | 196° |
| 2026-04-26 05:40 | 27.02675 | 76.69422 | 30777 ft | 477 kts | 196° |
| 2026-04-26 05:40 | 26.99445 | 76.68560 | 31097 ft | 477 kts | 196° |
| 2026-04-26 05:41 | 26.96213 | 76.67697 | 31493 ft | 476 kts | 196° |
| 2026-04-26 05:41 | 26.92989 | 76.66838 | 31910 ft | 474 kts | 196° |
| 2026-04-26 05:41 | 26.89782 | 76.65983 | 32297 ft | 472 kts | 196° |
| 2026-04-26 05:41 | 26.86618 | 76.65140 | 32679 ft | 471 kts | 196° |
| 2026-04-26 05:42 | 26.83435 | 76.64292 | 33073 ft | 469 kts | 196° |
| 2026-04-26 05:42 | 26.80264 | 76.63447 | 33444 ft | 467 kts | 195° |
| 2026-04-26 05:42 | 26.77103 | 76.62606 | 33798 ft | 466 kts | 195° |
| 2026-04-26 05:42 | 26.73944 | 76.61766 | 34102 ft | 464 kts | 195° |
| 2026-04-26 05:43 | 26.70838 | 76.60941 | 34420 ft | 462 kts | 195° |
| 2026-04-26 05:43 | 26.67708 | 76.60109 | 34703 ft | 461 kts | 195° |
| 2026-04-26 05:43 | 26.64584 | 76.59280 | 34975 ft | 459 kts | 196° |
| 2026-04-26 05:43 | 26.61514 | 76.58466 | 35228 ft | 458 kts | 196° |
| 2026-04-26 05:44 | 26.58406 | 76.57642 | 35485 ft | 457 kts | 196° |
| 2026-04-26 05:44 | 26.55312 | 76.56822 | 35742 ft | 456 kts | 196° |
| 2026-04-26 05:44 | 26.52225 | 76.56005 | 35969 ft | 455 kts | 196° |
| 2026-04-26 05:44 | 26.49178 | 76.55199 | 36193 ft | 454 kts | 196° |
| 2026-04-26 05:45 | 26.46099 | 76.54384 | 36422 ft | 452 kts | 196° |
| 2026-04-26 05:45 | 26.43027 | 76.53576 | 36626 ft | 452 kts | 196° |
| 2026-04-26 05:45 | 26.39956 | 76.52773 | 36836 ft | 451 kts | 196° |
| 2026-04-26 05:45 | 26.36928 | 76.51982 | 37029 ft | 450 kts | 196° |
| 2026-04-26 05:46 | 26.33875 | 76.51185 | 37219 ft | 449 kts | 196° |
| 2026-04-26 05:46 | 26.30827 | 76.50390 | 37415 ft | 448 kts | 196° |
| 2026-04-26 05:46 | 26.27824 | 76.49606 | 37591 ft | 448 kts | 196° |
| 2026-04-26 05:46 | 26.24783 | 76.48813 | 37758 ft | 447 kts | 196° |
| 2026-04-26 05:47 | 26.18752 | 76.47240 | 37848 ft | 446 kts | 196° |
| 2026-04-26 05:47 | 26.12706 | 76.45665 | 37840 ft | 445 kts | 196° |
| 2026-04-26 05:48 | 26.06688 | 76.44099 | 37845 ft | 446 kts | 196° |
| 2026-04-26 05:48 | 26.00637 | 76.42525 | 37842 ft | 446 kts | 196° |
| 2026-04-26 05:49 | 25.91448 | 76.40832 | 37841 ft | 451 kts | 182° |
| 2026-04-26 05:50 | 25.85216 | 76.41767 | 38055 ft | 458 kts | 167° |
| 2026-04-26 05:50 | 25.82166 | 76.42843 | 38203 ft | 459 kts | 165° |
| 2026-04-26 05:50 | 25.79123 | 76.43942 | 38343 ft | 458 kts | 165° |
| 2026-04-26 05:50 | 25.76112 | 76.45019 | 38470 ft | 458 kts | 165° |
| 2026-04-26 05:51 | 25.73080 | 76.46101 | 38583 ft | 457 kts | 165° |
| 2026-04-26 05:51 | 25.66990 | 76.48268 | 38748 ft | 458 kts | 165° |
| 2026-04-26 05:52 | 25.60952 | 76.50416 | 38837 ft | 458 kts | 165° |
| 2026-04-26 05:52 | 25.54884 | 76.52574 | 38838 ft | 457 kts | 165° |
| 2026-04-26 05:53 | 25.48847 | 76.54718 | 38840 ft | 457 kts | 165° |
| 2026-04-26 05:53 | 25.42785 | 76.56868 | 38841 ft | 457 kts | 165° |
| 2026-04-26 05:54 | 25.36747 | 76.59008 | 38841 ft | 457 kts | 165° |
| 2026-04-26 05:54 | 25.30678 | 76.61156 | 38842 ft | 457 kts | 165° |
| 2026-04-26 05:55 | 25.24609 | 76.63302 | 38841 ft | 457 kts | 165° |
| 2026-04-26 05:55 | 25.18578 | 76.65433 | 38843 ft | 457 kts | 165° |
| 2026-04-26 05:56 | 25.12510 | 76.67574 | 38842 ft | 457 kts | 165° |
| 2026-04-26 05:56 | 25.06454 | 76.69708 | 38849 ft | 457 kts | 165° |
| 2026-04-26 05:57 | 25.00434 | 76.71828 | 38845 ft | 457 kts | 165° |
| 2026-04-26 05:57 | 24.94363 | 76.73999 | 38847 ft | 457 kts | 165° |
| 2026-04-26 05:58 | 24.88339 | 76.76178 | 38847 ft | 457 kts | 165° |
| 2026-04-26 05:58 | 24.82282 | 76.78361 | 38849 ft | 457 kts | 165° |
| 2026-04-26 05:59 | 24.76256 | 76.80526 | 38853 ft | 457 kts | 165° |
| 2026-04-26 05:59 | 24.70205 | 76.82699 | 38849 ft | 456 kts | 165° |
| 2026-04-26 06:00 | 24.64207 | 76.84850 | 38847 ft | 456 kts | 165° |
| 2026-04-26 06:00 | 24.58156 | 76.87018 | 38845 ft | 456 kts | 165° |
| 2026-04-26 06:01 | 24.52153 | 76.89167 | 38844 ft | 456 kts | 165° |
| 2026-04-26 06:01 | 24.46116 | 76.91325 | 38842 ft | 455 kts | 165° |
| 2026-04-26 06:02 | 24.39996 | 76.92899 | 38836 ft | 451 kts | 175° |
| 2026-04-26 06:02 | 24.33748 | 76.93401 | 38839 ft | 448 kts | 181° |
| 2026-04-26 06:03 | 24.27550 | 76.93656 | 38854 ft | 448 kts | 181° |
| 2026-04-26 06:03 | 24.21296 | 76.93930 | 38844 ft | 449 kts | 181° |
| 2026-04-26 06:04 | 24.15077 | 76.94203 | 38846 ft | 449 kts | 181° |
| 2026-04-26 06:04 | 24.08819 | 76.94476 | 38853 ft | 449 kts | 181° |
| 2026-04-26 06:05 | 24.02592 | 76.94748 | 38847 ft | 450 kts | 181° |
| 2026-04-26 06:05 | 23.96326 | 76.95021 | 38850 ft | 450 kts | 181° |
| 2026-04-26 06:06 | 23.90053 | 76.95294 | 38851 ft | 450 kts | 181° |
| 2026-04-26 06:06 | 23.83818 | 76.95566 | 38853 ft | 450 kts | 181° |
| 2026-04-26 06:07 | 23.77533 | 76.95839 | 38854 ft | 451 kts | 181° |
| 2026-04-26 06:07 | 23.71292 | 76.96110 | 38858 ft | 451 kts | 181° |
| 2026-04-26 06:08 | 23.65043 | 76.96382 | 38860 ft | 451 kts | 181° |
| 2026-04-26 06:08 | 23.58781 | 76.96653 | 38862 ft | 451 kts | 182° |
| 2026-04-26 06:09 | 23.52512 | 76.96926 | 38861 ft | 448 kts | 182° |
| 2026-04-26 06:09 | 23.46307 | 76.97194 | 38860 ft | 448 kts | 182° |
| 2026-04-26 06:10 | 23.40077 | 76.97464 | 38859 ft | 447 kts | 182° |
| 2026-04-26 06:10 | 23.33859 | 76.97733 | 38862 ft | 446 kts | 182° |
| 2026-04-26 06:11 | 23.27680 | 76.98000 | 38863 ft | 446 kts | 182° |
| 2026-04-26 06:11 | 23.21469 | 76.98268 | 38869 ft | 446 kts | 182° |
| 2026-04-26 06:12 | 23.15258 | 76.98729 | 38872 ft | 449 kts | 176° |
| 2026-04-26 06:12 | 23.09147 | 77.00126 | 38862 ft | 452 kts | 171° |
| 2026-04-26 06:13 | 23.03023 | 77.01721 | 38865 ft | 452 kts | 172° |
| 2026-04-26 06:13 | 22.96932 | 77.03290 | 38870 ft | 451 kts | 172° |
| 2026-04-26 06:14 | 22.90808 | 77.04865 | 38869 ft | 451 kts | 172° |
| 2026-04-26 06:14 | 22.84676 | 77.06441 | 38865 ft | 451 kts | 172° |
| 2026-04-26 06:15 | 22.78595 | 77.08003 | 38864 ft | 451 kts | 172° |
| 2026-04-26 06:15 | 22.72470 | 77.09575 | 38861 ft | 451 kts | 173° |
| 2026-04-26 06:16 | 22.66390 | 77.11134 | 38866 ft | 450 kts | 173° |
| 2026-04-26 06:16 | 22.60280 | 77.12698 | 38871 ft | 450 kts | 173° |
| 2026-04-26 06:17 | 22.54205 | 77.14253 | 38871 ft | 450 kts | 173° |
| 2026-04-26 06:17 | 22.48129 | 77.15806 | 38875 ft | 450 kts | 173° |
| 2026-04-26 06:18 | 22.42018 | 77.17367 | 38871 ft | 450 kts | 173° |
| 2026-04-26 06:18 | 22.35962 | 77.18914 | 38882 ft | 450 kts | 173° |
| 2026-04-26 06:19 | 22.29856 | 77.20490 | 38872 ft | 450 kts | 173° |
| 2026-04-26 06:19 | 22.23793 | 77.22056 | 38877 ft | 450 kts | 173° |
| 2026-04-26 06:20 | 22.17685 | 77.23630 | 38882 ft | 450 kts | 173° |
| 2026-04-26 06:20 | 22.11622 | 77.25190 | 38890 ft | 450 kts | 173° |
| 2026-04-26 06:21 | 22.05505 | 77.26762 | 38890 ft | 450 kts | 173° |
| 2026-04-26 06:21 | 21.99433 | 77.28322 | 38893 ft | 451 kts | 173° |
| 2026-04-26 06:22 | 21.93346 | 77.29884 | 38895 ft | 450 kts | 173° |
| 2026-04-26 06:22 | 21.87253 | 77.31448 | 38886 ft | 448 kts | 173° |
| 2026-04-26 06:23 | 21.81170 | 77.33005 | 38890 ft | 449 kts | 174° |
| 2026-04-26 06:23 | 21.75121 | 77.34552 | 38888 ft | 448 kts | 174° |
| 2026-04-26 06:24 | 21.69047 | 77.36105 | 38886 ft | 448 kts | 174° |
| 2026-04-26 06:24 | 21.63017 | 77.37646 | 38884 ft | 447 kts | 174° |
| 2026-04-26 06:25 | 21.56950 | 77.39154 | 38887 ft | 446 kts | 175° |
| 2026-04-26 06:25 | 21.50863 | 77.40561 | 38883 ft | 446 kts | 175° |
| 2026-04-26 06:26 | 21.44836 | 77.41961 | 38882 ft | 446 kts | 175° |
| 2026-04-26 06:26 | 21.38751 | 77.43385 | 38878 ft | 446 kts | 175° |
| 2026-04-26 06:27 | 21.32703 | 77.44802 | 38875 ft | 445 kts | 175° |
| 2026-04-26 06:27 | 21.26679 | 77.46211 | 38865 ft | 445 kts | 175° |
| 2026-04-26 06:28 | 21.20617 | 77.47629 | 38858 ft | 444 kts | 175° |
| 2026-04-26 06:28 | 21.14589 | 77.49037 | 38852 ft | 444 kts | 175° |
| 2026-04-26 06:29 | 21.08576 | 77.50441 | 38848 ft | 443 kts | 175° |
| 2026-04-26 06:29 | 21.02543 | 77.51848 | 38841 ft | 443 kts | 175° |
| 2026-04-26 06:30 | 20.96547 | 77.53246 | 38835 ft | 442 kts | 175° |
| 2026-04-26 06:30 | 20.91548 | 77.54410 | 38835 ft | 441 kts | 175° |
| 2026-04-26 06:31 | 20.84561 | 77.56035 | 38834 ft | 441 kts | 175° |
| 2026-04-26 06:31 | 20.79573 | 77.57209 | 38833 ft | 440 kts | 175° |
| 2026-04-26 06:32 | 20.73584 | 77.58626 | 38834 ft | 440 kts | 175° |
| 2026-04-26 06:32 | 20.67599 | 77.60037 | 38833 ft | 439 kts | 175° |
| 2026-04-26 06:33 | 20.61623 | 77.61444 | 38834 ft | 439 kts | 175° |
| 2026-04-26 06:33 | 20.55688 | 77.62841 | 38835 ft | 439 kts | 175° |
| 2026-04-26 06:34 | 20.49716 | 77.64245 | 38842 ft | 438 kts | 175° |
| 2026-04-26 06:34 | 20.43789 | 77.65637 | 38841 ft | 438 kts | 175° |
| 2026-04-26 06:35 | 20.37816 | 77.67039 | 38841 ft | 438 kts | 175° |
| 2026-04-26 06:35 | 20.31899 | 77.68427 | 38848 ft | 437 kts | 175° |
| 2026-04-26 06:36 | 20.25940 | 77.69824 | 38848 ft | 437 kts | 175° |
| 2026-04-26 06:36 | 20.20032 | 77.71207 | 38854 ft | 437 kts | 175° |
| 2026-04-26 06:37 | 20.14073 | 77.72602 | 38851 ft | 437 kts | 175° |
| 2026-04-26 06:37 | 20.08174 | 77.73981 | 38850 ft | 436 kts | 175° |
| 2026-04-26 06:38 | 20.02226 | 77.75371 | 38848 ft | 436 kts | 175° |
| 2026-04-26 06:38 | 19.96334 | 77.76747 | 38851 ft | 435 kts | 175° |
| 2026-04-26 06:39 | 19.90395 | 77.78133 | 38850 ft | 435 kts | 175° |
| 2026-04-26 06:39 | 19.84478 | 77.79512 | 38856 ft | 435 kts | 175° |
| 2026-04-26 06:40 | 19.78576 | 77.80887 | 38856 ft | 435 kts | 175° |
| 2026-04-26 06:40 | 19.72642 | 77.82268 | 38858 ft | 435 kts | 175° |
| 2026-04-26 06:41 | 19.66756 | 77.83637 | 38858 ft | 435 kts | 175° |
| 2026-04-26 06:41 | 19.60868 | 77.85006 | 38858 ft | 435 kts | 175° |
| 2026-04-26 06:42 | 19.54945 | 77.86382 | 38863 ft | 435 kts | 174° |
| 2026-04-26 06:42 | 19.49058 | 77.87748 | 38872 ft | 434 kts | 174° |
| 2026-04-26 06:43 | 19.43150 | 77.89118 | 38874 ft | 434 kts | 174° |
| 2026-04-26 06:43 | 19.37234 | 77.90489 | 38873 ft | 434 kts | 174° |
| 2026-04-26 06:44 | 19.31345 | 77.91853 | 38876 ft | 434 kts | 174° |
| 2026-04-26 06:44 | 19.25436 | 77.93226 | 38883 ft | 434 kts | 174° |
| 2026-04-26 06:45 | 19.19556 | 77.94601 | 38883 ft | 434 kts | 174° |
| 2026-04-26 06:45 | 19.13637 | 77.95982 | 38885 ft | 434 kts | 174° |
| 2026-04-26 06:46 | 19.07767 | 77.97351 | 38885 ft | 434 kts | 174° |
| 2026-04-26 06:46 | 19.01861 | 77.98727 | 38886 ft | 434 kts | 174° |
| 2026-04-26 06:47 | 18.95943 | 78.00105 | 38886 ft | 433 kts | 174° |
| 2026-04-26 06:47 | 18.90097 | 78.01479 | 38888 ft | 433 kts | 174° |
| 2026-04-26 06:48 | 18.84204 | 78.02864 | 38883 ft | 433 kts | 174° |
| 2026-04-26 06:48 | 18.78346 | 78.04239 | 38888 ft | 433 kts | 174° |
| 2026-04-26 06:49 | 18.72458 | 78.05620 | 38884 ft | 432 kts | 174° |
| 2026-04-26 06:49 | 18.66581 | 78.06996 | 38885 ft | 432 kts | 174° |
| 2026-04-26 06:50 | 18.60754 | 78.08360 | 38885 ft | 432 kts | 174° |
| 2026-04-26 06:50 | 18.54873 | 78.09736 | 38892 ft | 432 kts | 174° |
| 2026-04-26 06:51 | 18.49027 | 78.11103 | 38892 ft | 431 kts | 174° |
| 2026-04-26 06:51 | 18.40214 | 78.13161 | 38899 ft | 432 kts | 174° |
| 2026-04-26 06:52 | 18.34379 | 78.14523 | 38903 ft | 432 kts | 174° |
| 2026-04-26 06:52 | 18.28489 | 78.15896 | 38908 ft | 432 kts | 173° |
| 2026-04-26 06:53 | 18.22649 | 78.17257 | 38918 ft | 432 kts | 173° |
| 2026-04-26 06:53 | 18.16761 | 78.18677 | 38923 ft | 435 kts | 169° |
| 2026-04-26 06:54 | 18.11113 | 78.21188 | 38931 ft | 447 kts | 156° |
| 2026-04-26 06:54 | 18.06083 | 78.25145 | 38936 ft | 457 kts | 143° |
| 2026-04-26 06:55 | 18.01405 | 78.29636 | 38944 ft | 457 kts | 144° |
| 2026-04-26 06:55 | 17.96688 | 78.34145 | 38947 ft | 457 kts | 144° |
| 2026-04-26 06:56 | 17.92017 | 78.38616 | 38951 ft | 457 kts | 144° |
| 2026-04-26 06:56 | 17.87310 | 78.43116 | 38954 ft | 457 kts | 144° |
| 2026-04-26 06:57 | 17.82618 | 78.47598 | 38953 ft | 456 kts | 144° |
| 2026-04-26 06:57 | 17.77917 | 78.52085 | 38957 ft | 456 kts | 144° |
| 2026-04-26 06:58 | 17.73213 | 78.56572 | 38964 ft | 456 kts | 144° |
| 2026-04-26 06:58 | 17.68545 | 78.61021 | 38965 ft | 455 kts | 144° |
| 2026-04-26 06:59 | 17.63854 | 78.65488 | 38964 ft | 455 kts | 144° |
| 2026-04-26 06:59 | 17.59149 | 78.69965 | 38961 ft | 455 kts | 144° |
| 2026-04-26 07:00 | 17.54488 | 78.74397 | 38957 ft | 455 kts | 144° |
| 2026-04-26 07:00 | 17.49792 | 78.78860 | 38948 ft | 454 kts | 144° |
| 2026-04-26 07:01 | 17.45129 | 78.83293 | 38942 ft | 454 kts | 143° |
| 2026-04-26 07:01 | 17.40456 | 78.87764 | 38935 ft | 455 kts | 143° |
| 2026-04-26 07:02 | 17.35778 | 78.92238 | 38930 ft | 455 kts | 143° |
| 2026-04-26 07:02 | 17.31092 | 78.96712 | 38926 ft | 455 kts | 143° |
| 2026-04-26 07:03 | 17.26430 | 79.01159 | 38923 ft | 456 kts | 143° |
| 2026-04-26 07:03 | 17.21731 | 79.05639 | 38921 ft | 456 kts | 143° |
| 2026-04-26 07:04 | 17.17030 | 79.10116 | 38917 ft | 457 kts | 143° |
| 2026-04-26 07:04 | 17.12321 | 79.14599 | 38917 ft | 458 kts | 143° |
| 2026-04-26 07:05 | 17.07629 | 79.19062 | 38915 ft | 458 kts | 143° |
| 2026-04-26 07:05 | 17.02899 | 79.23557 | 38911 ft | 459 kts | 143° |
| 2026-04-26 07:06 | 16.98000 | 79.27734 | 38910 ft | 452 kts | 153° |
| 2026-04-26 07:06 | 16.92428 | 79.30602 | 38907 ft | 441 kts | 167° |
| 2026-04-26 07:07 | 16.86527 | 79.32220 | 38904 ft | 437 kts | 172° |
| 2026-04-26 07:07 | 16.80606 | 79.33705 | 38891 ft | 436 kts | 172° |
| 2026-04-26 07:08 | 16.74740 | 79.35182 | 38888 ft | 435 kts | 172° |
| 2026-04-26 07:08 | 16.68834 | 79.36663 | 38887 ft | 436 kts | 172° |
| 2026-04-26 07:09 | 16.62962 | 79.38135 | 38882 ft | 435 kts | 172° |
| 2026-04-26 07:09 | 16.57059 | 79.39613 | 38863 ft | 435 kts | 172° |
| 2026-04-26 07:10 | 16.48285 | 79.41810 | 37940 ft | 430 kts | 172° |
| 2026-04-26 07:11 | 16.42433 | 79.43268 | 37877 ft | 438 kts | 172° |
| 2026-04-26 07:11 | 16.36479 | 79.44756 | 37872 ft | 438 kts | 171° |
| 2026-04-26 07:12 | 16.30531 | 79.46243 | 37870 ft | 439 kts | 171° |
| 2026-04-26 07:12 | 16.24629 | 79.47716 | 37875 ft | 438 kts | 172° |
| 2026-04-26 07:13 | 16.18685 | 79.49199 | 37872 ft | 438 kts | 172° |
| 2026-04-26 07:13 | 16.12743 | 79.50680 | 37871 ft | 438 kts | 172° |
| 2026-04-26 07:14 | 16.06829 | 79.52153 | 37868 ft | 438 kts | 172° |
| 2026-04-26 07:14 | 16.00946 | 79.53810 | 37864 ft | 441 kts | 168° |
| 2026-04-26 07:15 | 15.95059 | 79.55711 | 37863 ft | 441 kts | 168° |
| 2026-04-26 07:15 | 15.89215 | 79.57587 | 37862 ft | 441 kts | 168° |
| 2026-04-26 07:16 | 15.83323 | 79.59476 | 37859 ft | 442 kts | 168° |
| 2026-04-26 07:16 | 15.77474 | 79.61350 | 37860 ft | 442 kts | 168° |
| 2026-04-26 07:17 | 15.72542 | 79.62930 | 37855 ft | 442 kts | 168° |
| 2026-04-26 07:17 | 15.66687 | 79.64804 | 37851 ft | 442 kts | 168° |
| 2026-04-26 07:18 | 15.60800 | 79.66688 | 37852 ft | 442 kts | 168° |
| 2026-04-26 07:18 | 15.54951 | 79.68558 | 37846 ft | 442 kts | 168° |
| 2026-04-26 07:19 | 15.49069 | 79.70437 | 37843 ft | 441 kts | 168° |
| 2026-04-26 07:19 | 15.43228 | 79.72303 | 37841 ft | 441 kts | 168° |
| 2026-04-26 07:20 | 15.37331 | 79.74184 | 37838 ft | 441 kts | 168° |
| 2026-04-26 07:20 | 15.31479 | 79.76052 | 37835 ft | 441 kts | 168° |
| 2026-04-26 07:21 | 15.25615 | 79.77921 | 37832 ft | 441 kts | 168° |
| 2026-04-26 07:21 | 15.19769 | 79.79784 | 37830 ft | 441 kts | 168° |
| 2026-04-26 07:22 | 15.13902 | 79.81652 | 37830 ft | 441 kts | 168° |
| 2026-04-26 07:22 | 15.08027 | 79.83522 | 37827 ft | 441 kts | 168° |
| 2026-04-26 07:23 | 15.02195 | 79.85377 | 37828 ft | 441 kts | 168° |
| 2026-04-26 07:23 | 14.96319 | 79.87245 | 37826 ft | 441 kts | 168° |
| 2026-04-26 07:24 | 14.90469 | 79.89103 | 37823 ft | 441 kts | 168° |
| 2026-04-26 07:24 | 14.84584 | 79.90972 | 37825 ft | 442 kts | 168° |
| 2026-04-26 07:25 | 14.78692 | 79.92842 | 37830 ft | 442 kts | 168° |
| 2026-04-26 07:25 | 14.72844 | 79.94696 | 37829 ft | 442 kts | 168° |
| 2026-04-26 07:26 | 14.66945 | 79.96566 | 37828 ft | 442 kts | 168° |
| 2026-04-26 07:26 | 14.61051 | 79.98433 | 37832 ft | 442 kts | 168° |
| 2026-04-26 07:27 | 14.55193 | 80.00288 | 37829 ft | 442 kts | 168° |
| 2026-04-26 07:27 | 14.49288 | 80.02157 | 37830 ft | 442 kts | 168° |
| 2026-04-26 07:28 | 14.43422 | 80.04012 | 37828 ft | 442 kts | 168° |
| 2026-04-26 07:28 | 14.37470 | 80.05026 | 37821 ft | 432 kts | 181° |
| 2026-04-26 07:29 | 14.31445 | 80.05433 | 37819 ft | 432 kts | 181° |
| 2026-04-26 07:29 | 14.25483 | 80.05863 | 37814 ft | 432 kts | 181° |
| 2026-04-26 07:30 | 14.19474 | 80.06319 | 37817 ft | 432 kts | 181° |
| 2026-04-26 07:30 | 14.13504 | 80.06776 | 37814 ft | 432 kts | 181° |
| 2026-04-26 07:31 | 14.07496 | 80.07236 | 37817 ft | 432 kts | 181° |
| 2026-04-26 07:31 | 14.01490 | 80.07694 | 37814 ft | 432 kts | 181° |
| 2026-04-26 07:32 | 13.95502 | 80.08151 | 37819 ft | 432 kts | 181° |
| 2026-04-26 07:32 | 13.89497 | 80.08610 | 37817 ft | 432 kts | 181° |
| 2026-04-26 07:33 | 13.83520 | 80.09065 | 37819 ft | 432 kts | 181° |
| 2026-04-26 07:33 | 13.77536 | 80.09521 | 37822 ft | 433 kts | 181° |
| 2026-04-26 07:34 | 13.71527 | 80.09979 | 37826 ft | 433 kts | 181° |
| 2026-04-26 07:34 | 13.65501 | 80.10437 | 37826 ft | 433 kts | 181° |
| 2026-04-26 07:35 | 13.59521 | 80.10892 | 37827 ft | 433 kts | 181° |
| 2026-04-26 07:35 | 13.53499 | 80.11350 | 37829 ft | 433 kts | 181° |
| 2026-04-26 07:36 | 13.47477 | 80.11808 | 37833 ft | 433 kts | 181° |
| 2026-04-26 07:36 | 13.41488 | 80.12262 | 37834 ft | 433 kts | 181° |
| 2026-04-26 07:37 | 13.35466 | 80.12719 | 37831 ft | 433 kts | 181° |
| 2026-04-26 07:37 | 13.29444 | 80.13176 | 37833 ft | 433 kts | 181° |
| 2026-04-26 07:38 | 13.23439 | 80.13632 | 37834 ft | 434 kts | 181° |
| 2026-04-26 07:38 | 13.17409 | 80.14089 | 37832 ft | 434 kts | 181° |
| 2026-04-26 07:39 | 13.11402 | 80.14544 | 37830 ft | 434 kts | 181° |
| 2026-04-26 07:39 | 13.05357 | 80.15002 | 37831 ft | 434 kts | 181° |
| 2026-04-26 07:40 | 12.99358 | 80.15435 | 37830 ft | 433 kts | 183° |
| 2026-04-26 07:40 | 12.93345 | 80.15312 | 37830 ft | 430 kts | 187° |
| 2026-04-26 07:41 | 12.87349 | 80.15094 | 37832 ft | 431 kts | 186° |
| 2026-04-26 07:41 | 12.81384 | 80.14884 | 37836 ft | 431 kts | 186° |
| 2026-04-26 07:42 | 12.75379 | 80.14672 | 37844 ft | 431 kts | 186° |
| 2026-04-26 07:42 | 12.69380 | 80.14460 | 37848 ft | 431 kts | 186° |
| 2026-04-26 07:43 | 12.63380 | 80.14247 | 37851 ft | 431 kts | 186° |
| 2026-04-26 07:43 | 12.57403 | 80.14035 | 37855 ft | 431 kts | 186° |
| 2026-04-26 07:44 | 12.51431 | 80.13824 | 37854 ft | 431 kts | 186° |
| 2026-04-26 07:44 | 12.45409 | 80.13611 | 37852 ft | 431 kts | 186° |
| 2026-04-26 07:45 | 12.39446 | 80.13400 | 37854 ft | 431 kts | 186° |
| 2026-04-26 07:45 | 12.33433 | 80.13188 | 37851 ft | 431 kts | 186° |
| 2026-04-26 07:46 | 12.27416 | 80.12975 | 37849 ft | 431 kts | 186° |
| 2026-04-26 07:46 | 12.21441 | 80.12764 | 37851 ft | 431 kts | 186° |
| 2026-04-26 07:47 | 12.15465 | 80.12553 | 37848 ft | 431 kts | 186° |
| 2026-04-26 07:47 | 12.09447 | 80.12341 | 37850 ft | 431 kts | 186° |
| 2026-04-26 07:48 | 12.03466 | 80.12130 | 37851 ft | 431 kts | 186° |
| 2026-04-26 07:48 | 11.97456 | 80.11918 | 37848 ft | 431 kts | 186° |
| 2026-04-26 07:49 | 11.91475 | 80.11707 | 37849 ft | 431 kts | 185° |
| 2026-04-26 07:49 | 11.85442 | 80.11495 | 37850 ft | 431 kts | 185° |
| 2026-04-26 07:50 | 11.76448 | 80.11317 | 37851 ft | 432 kts | 184° |
| 2026-04-26 07:50 | 11.70455 | 80.11212 | 37851 ft | 432 kts | 184° |
| 2026-04-26 07:51 | 11.64432 | 80.11098 | 37850 ft | 432 kts | 184° |
| 2026-04-26 07:51 | 11.58386 | 80.10981 | 37851 ft | 433 kts | 184° |
| 2026-04-26 07:52 | 11.52385 | 80.10865 | 37849 ft | 433 kts | 184° |
| 2026-04-26 07:52 | 11.46344 | 80.10749 | 37853 ft | 433 kts | 184° |
| 2026-04-26 07:53 | 11.40344 | 80.10633 | 37854 ft | 433 kts | 184° |
| 2026-04-26 07:53 | 11.34305 | 80.10517 | 37855 ft | 434 kts | 184° |
| 2026-04-26 07:54 | 11.28262 | 80.10401 | 37854 ft | 434 kts | 184° |
| 2026-04-26 07:54 | 11.22256 | 80.10285 | 37858 ft | 434 kts | 184° |
| 2026-04-26 07:55 | 11.16202 | 80.10169 | 37855 ft | 434 kts | 184° |
| 2026-04-26 07:55 | 11.10152 | 80.10053 | 37858 ft | 434 kts | 184° |
| 2026-04-26 07:56 | 11.04132 | 80.09937 | 37855 ft | 434 kts | 184° |
| 2026-04-26 07:56 | 10.98074 | 80.09821 | 37855 ft | 434 kts | 184° |
| 2026-04-26 07:57 | 10.92060 | 80.09705 | 37854 ft | 434 kts | 184° |
| 2026-04-26 07:57 | 10.86012 | 80.09589 | 37852 ft | 434 kts | 183° |
| 2026-04-26 07:58 | 10.79948 | 80.09473 | 37855 ft | 434 kts | 183° |
| 2026-04-26 07:58 | 10.73932 | 80.09358 | 37858 ft | 434 kts | 183° |
| 2026-04-26 07:59 | 10.67877 | 80.09250 | 37854 ft | 434 kts | 183° |
| 2026-04-26 07:59 | 10.61829 | 80.09156 | 37850 ft | 434 kts | 183° |
| 2026-04-26 08:00 | 10.55806 | 80.09061 | 37849 ft | 434 kts | 183° |
| 2026-04-26 08:00 | 10.49749 | 80.08964 | 37848 ft | 435 kts | 183° |
| 2026-04-26 08:01 | 10.43725 | 80.08867 | 37855 ft | 435 kts | 183° |
| 2026-04-26 08:01 | 10.37671 | 80.08769 | 37856 ft | 435 kts | 183° |
| 2026-04-26 08:02 | 10.31615 | 80.08672 | 37852 ft | 435 kts | 183° |
| 2026-04-26 08:02 | 10.25589 | 80.08575 | 37857 ft | 435 kts | 183° |
| 2026-04-26 08:03 | 10.19524 | 80.08477 | 37852 ft | 435 kts | 183° |
| 2026-04-26 08:03 | 10.13490 | 80.08380 | 37851 ft | 435 kts | 182° |
| 2026-04-26 08:04 | 10.08410 | 80.08299 | 37851 ft | 436 kts | 182° |
| 2026-04-26 08:04 | 10.02379 | 80.08202 | 37847 ft | 436 kts | 182° |
| 2026-04-26 08:05 | 9.96300 | 80.08098 | 37850 ft | 436 kts | 183° |
| 2026-04-26 08:05 | 9.90255 | 80.07979 | 37853 ft | 436 kts | 183° |
| 2026-04-26 08:06 | 9.84154 | 80.07859 | 37861 ft | 436 kts | 182° |
| 2026-04-26 08:06 | 9.78100 | 80.07742 | 37861 ft | 437 kts | 182° |
| 2026-04-26 08:07 | 9.72039 | 80.07626 | 37869 ft | 437 kts | 182° |
| 2026-04-26 08:07 | 9.65950 | 80.07509 | 37867 ft | 437 kts | 182° |
| 2026-04-26 08:08 | 9.59847 | 80.07392 | 37862 ft | 437 kts | 182° |
| 2026-04-26 08:08 | 9.53788 | 80.07276 | 37861 ft | 438 kts | 182° |
| 2026-04-26 08:09 | 9.47688 | 80.07158 | 37857 ft | 438 kts | 182° |
| 2026-04-26 08:09 | 9.41586 | 80.07041 | 37850 ft | 438 kts | 182° |
| 2026-04-26 08:10 | 9.35524 | 80.06925 | 37843 ft | 438 kts | 182° |
| 2026-04-26 08:10 | 9.29435 | 80.06808 | 37843 ft | 438 kts | 182° |
| 2026-04-26 08:11 | 9.23341 | 80.06689 | 37837 ft | 438 kts | 182° |
| 2026-04-26 08:11 | 9.17250 | 80.06571 | 37730 ft | 436 kts | 182° |
| 2026-04-26 08:12 | 9.14249 | 80.06513 | 37289 ft | 435 kts | 182° |
| 2026-04-26 08:12 | 9.11202 | 80.06453 | 36657 ft | 436 kts | 182° |
| 2026-04-26 08:12 | 9.08148 | 80.06394 | 35860 ft | 440 kts | 182° |
| 2026-04-26 08:12 | 9.05067 | 80.06334 | 35033 ft | 444 kts | 182° |
| 2026-04-26 08:13 | 9.01951 | 80.06273 | 34233 ft | 449 kts | 182° |
| 2026-04-26 08:13 | 8.98845 | 80.06212 | 33408 ft | 453 kts | 182° |
| 2026-04-26 08:13 | 8.95686 | 80.06150 | 32637 ft | 454 kts | 182° |
| 2026-04-26 08:13 | 8.92522 | 80.06088 | 31873 ft | 455 kts | 181° |
| 2026-04-26 08:14 | 8.89361 | 80.06027 | 31126 ft | 455 kts | 181° |
| 2026-04-26 08:14 | 8.86186 | 80.05965 | 30345 ft | 457 kts | 181° |
| 2026-04-26 08:14 | 8.83033 | 80.05903 | 29672 ft | 455 kts | 181° |
| 2026-04-26 08:14 | 8.79855 | 80.05842 | 29017 ft | 451 kts | 181° |
| 2026-04-26 08:15 | 8.76734 | 80.05782 | 28389 ft | 447 kts | 181° |
| 2026-04-26 08:15 | 8.73669 | 80.05722 | 27772 ft | 443 kts | 180° |
| 2026-04-26 08:15 | 8.70598 | 80.05663 | 27143 ft | 439 kts | 180° |
| 2026-04-26 08:15 | 8.67549 | 80.05603 | 26531 ft | 436 kts | 180° |
| 2026-04-26 08:16 | 8.64520 | 80.05544 | 25917 ft | 433 kts | 180° |
| 2026-04-26 08:16 | 8.61505 | 80.05485 | 25315 ft | 431 kts | 180° |
| 2026-04-26 08:16 | 8.58548 | 80.05427 | 24746 ft | 428 kts | 180° |
| 2026-04-26 08:16 | 8.55565 | 80.05369 | 24155 ft | 426 kts | 180° |
| 2026-04-26 08:17 | 8.52605 | 80.05312 | 23595 ft | 424 kts | 180° |
| 2026-04-26 08:17 | 8.49656 | 80.05255 | 22998 ft | 422 kts | 180° |
| 2026-04-26 08:17 | 8.46726 | 80.05198 | 22414 ft | 418 kts | 180° |
| 2026-04-26 08:17 | 8.43864 | 80.05143 | 21852 ft | 414 kts | 180° |
| 2026-04-26 08:18 | 8.40980 | 80.05087 | 21281 ft | 411 kts | 180° |
| 2026-04-26 08:18 | 8.38134 | 80.05032 | 20720 ft | 407 kts | 180° |
| 2026-04-26 08:18 | 8.35308 | 80.04977 | 20167 ft | 404 kts | 180° |
| 2026-04-26 08:18 | 8.32504 | 80.04923 | 19636 ft | 401 kts | 180° |
| 2026-04-26 08:19 | 8.29755 | 80.04870 | 19118 ft | 397 kts | 180° |
| 2026-04-26 08:19 | 8.26981 | 80.04816 | 18613 ft | 394 kts | 180° |
| 2026-04-26 08:19 | 8.24282 | 80.04764 | 18103 ft | 391 kts | 180° |
| 2026-04-26 08:19 | 8.21561 | 80.04711 | 17537 ft | 388 kts | 180° |
| 2026-04-26 08:20 | 8.18868 | 80.04658 | 17045 ft | 384 kts | 180° |
| 2026-04-26 08:20 | 8.16220 | 80.04607 | 16866 ft | 381 kts | 179° |
| 2026-04-26 08:20 | 8.13557 | 80.04557 | 16798 ft | 382 kts | 179° |
| 2026-04-26 08:20 | 8.10896 | 80.04506 | 16508 ft | 381 kts | 179° |
| 2026-04-26 08:21 | 8.08249 | 80.04455 | 16067 ft | 379 kts | 179° |
| 2026-04-26 08:21 | 8.05613 | 80.04404 | 15532 ft | 377 kts | 179° |
| 2026-04-26 08:21 | 8.02994 | 80.04353 | 15014 ft | 375 kts | 179° |
| 2026-04-26 08:21 | 8.00419 | 80.04303 | 14508 ft | 373 kts | 179° |
| 2026-04-26 08:22 | 7.97831 | 80.04253 | 14004 ft | 371 kts | 178° |
| 2026-04-26 08:22 | 7.95249 | 80.04203 | 13505 ft | 368 kts | 178° |
| 2026-04-26 08:22 | 7.92694 | 80.04155 | 12975 ft | 365 kts | 178° |
| 2026-04-26 08:22 | 7.90187 | 80.04108 | 12473 ft | 362 kts | 178° |
| 2026-04-26 08:23 | 7.87680 | 80.04061 | 11989 ft | 358 kts | 179° |
| 2026-04-26 08:23 | 7.85188 | 80.04014 | 11511 ft | 355 kts | 179° |
| 2026-04-26 08:23 | 7.82731 | 80.03967 | 11036 ft | 352 kts | 179° |
| 2026-04-26 08:23 | 7.80322 | 80.03922 | 10585 ft | 349 kts | 179° |
| 2026-04-26 08:24 | 7.77916 | 80.03876 | 10342 ft | 338 kts | 179° |
| 2026-04-26 08:24 | 7.75602 | 80.03831 | 10210 ft | 325 kts | 179° |
| 2026-04-26 08:24 | 7.73387 | 80.03787 | 10107 ft | 312 kts | 179° |
| 2026-04-26 08:24 | 7.71284 | 80.03747 | 10019 ft | 298 kts | 179° |
| 2026-04-26 08:25 | 7.69253 | 80.03707 | 9988 ft | 284 kts | 179° |
| 2026-04-26 08:25 | 7.67357 | 80.03670 | 9981 ft | 261 kts | 178° |
| 2026-04-26 08:25 | 7.65606 | 80.03635 | 9992 ft | 249 kts | 178° |
| 2026-04-26 08:25 | 7.63841 | 80.03606 | 9985 ft | 254 kts | 178° |
| 2026-04-26 08:26 | 7.62087 | 80.03574 | 9874 ft | 249 kts | 178° |
| 2026-04-26 08:26 | 7.60349 | 80.03542 | 9602 ft | 249 kts | 178° |
| 2026-04-26 08:26 | 7.58637 | 80.03511 | 9271 ft | 248 kts | 178° |
| 2026-04-26 08:26 | 7.56908 | 80.03478 | 8959 ft | 247 kts | 179° |
| 2026-04-26 08:27 | 7.55194 | 80.03446 | 8656 ft | 246 kts | 178° |
| 2026-04-26 08:27 | 7.53486 | 80.03414 | 8353 ft | 245 kts | 179° |
| 2026-04-26 08:27 | 7.51815 | 80.03381 | 8222 ft | 233 kts | 179° |
| 2026-04-26 08:27 | 7.50249 | 80.03349 | 8114 ft | 221 kts | 178° |
| 2026-04-26 08:28 | 7.48728 | 80.03318 | 7886 ft | 217 kts | 178° |
| 2026-04-26 08:28 | 7.47220 | 80.03289 | 7604 ft | 216 kts | 178° |
| 2026-04-26 08:28 | 7.45708 | 80.03261 | 7295 ft | 216 kts | 178° |
| 2026-04-26 08:28 | 7.44223 | 80.03235 | 6996 ft | 217 kts | 179° |
| 2026-04-26 08:29 | 7.42700 | 80.03207 | 6623 ft | 220 kts | 179° |
| 2026-04-26 08:29 | 7.41164 | 80.03177 | 6258 ft | 219 kts | 178° |
| 2026-04-26 08:29 | 7.39636 | 80.03148 | 5857 ft | 219 kts | 179° |
| 2026-04-26 08:29 | 7.38116 | 80.03112 | 5470 ft | 218 kts | 183° |
| 2026-04-26 08:30 | 7.36692 | 80.02662 | 5082 ft | 220 kts | 210° |
| 2026-04-26 08:30 | 7.35462 | 80.01754 | 4750 ft | 217 kts | 220° |
| 2026-04-26 08:30 | 7.34319 | 80.00818 | 4410 ft | 209 kts | 216° |
| 2026-04-26 08:30 | 7.33172 | 79.99940 | 4026 ft | 205 kts | 217° |
| 2026-04-26 08:31 | 7.32045 | 79.99073 | 3642 ft | 203 kts | 217° |
| 2026-04-26 08:31 | 7.30926 | 79.98213 | 3260 ft | 201 kts | 217° |
| 2026-04-26 08:31 | 7.29817 | 79.97363 | 2859 ft | 200 kts | 217° |
| 2026-04-26 08:31 | 7.28708 | 79.96511 | 2403 ft | 201 kts | 218° |
| 2026-04-26 08:32 | 7.27609 | 79.95667 | 1955 ft | 201 kts | 218° |
| 2026-04-26 08:32 | 7.26506 | 79.94821 | 1598 ft | 195 kts | 219° |
| 2026-04-26 08:32 | 7.25468 | 79.94025 | 1497 ft | 179 kts | 219° |
| 2026-04-26 08:32 | 7.24548 | 79.93319 | 1483 ft | 150 kts | 220° |
| 2026-04-26 08:33 | 7.23771 | 79.92717 | 1382 ft | 139 kts | 220° |
| 2026-04-26 08:33 | 7.23085 | 79.92191 | 1106 ft | 139 kts | 220° |
| 2026-04-26 08:33 | 7.22321 | 79.91632 | 885 ft | 128 kts | 219° |
| 2026-04-26 08:33 | 7.21618 | 79.91102 | 744 ft | 133 kts | 221° |
| 2026-04-26 08:34 | 7.20877 | 79.90511 | 500 ft | 136 kts | 221° |
| 2026-04-26 08:34 | 7.20128 | 79.89935 | 265 ft | 134 kts | 223° |
| 2026-04-26 08:34 | 7.19409 | 79.89359 | 73 ft | 133 kts | 221° |
| 2026-04-26 08:34 | 7.18692 | 79.88789 | 29 ft | 120 kts | 216° |
| 2026-04-26 08:35 | 7.18186 | 79.88405 | 27 ft | 61 kts | 218° |
| 2026-04-26 08:35 | 7.17963 | 79.88255 | 28 ft | 23 kts | 214° |
| 2026-04-26 08:35 | 7.17874 | 79.88220 | 29 ft | 9 kts | 159° |
| 2026-04-26 08:35 | 7.17825 | 79.88273 | 29 ft | 13 kts | 127° |
| 2026-04-26 08:36 | 7.17745 | 79.88317 | 27 ft | 15 kts | 211° |
| 2026-04-26 08:36 | 7.17664 | 79.88259 | 27 ft | 13 kts | 206° |
| 2026-04-26 08:36 | 7.17591 | 79.88299 | 27 ft | 13 kts | 125° |
| 2026-04-26 08:36 | 7.17532 | 79.88381 | 27 ft | 16 kts | 129° |
| 2026-04-26 08:37 | 7.17492 | 79.88433 | 27 ft | 1 kts | 128° |
| 2026-04-26 08:37 | 7.17478 | 79.88452 | 27 ft | 5 kts | 118° |
| 2026-04-26 08:37 | 7.17496 | 79.88481 | 27 ft | 7 kts | 37° |
| 2026-04-26 08:37 | 7.17532 | 79.88508 | 27 ft | 0 kts | 37° |